createdAt,value
2017-07-15T00:04:56.878Z,1011.5
2017-07-15T00:15:11.666Z,1011.6
2017-07-15T00:25:27.357Z,1011.6
2017-07-15T00:35:41.992Z,1011.7
2017-07-15T00:45:56.908Z,1011.6
2017-07-15T00:56:11.382Z,1011.8
2017-07-15T01:06:25.991Z,1011.8
2017-07-15T01:16:39.667Z,1011.8
2017-07-15T01:26:54.290Z,1011.9
2017-07-15T01:37:08.311Z,1011.8
2017-07-15T01:47:22.974Z,1011.9
2017-07-15T01:57:37.164Z,1011.9
2017-07-15T02:07:52.466Z,1011.9
2017-07-15T02:18:06.466Z,1012
2017-07-15T02:28:20.700Z,1012
2017-07-15T02:38:35.006Z,1012.1
2017-07-15T02:48:50.487Z,1012.2
2017-07-15T02:59:05.535Z,1012.3
2017-07-15T03:09:19.345Z,1012.4
2017-07-15T03:19:33.721Z,1012.5
2017-07-15T03:29:47.853Z,1012.6
2017-07-15T03:40:03.619Z,1012.6
2017-07-15T03:50:18.479Z,1012.9
2017-07-15T04:00:32.492Z,1012.9
2017-07-15T04:10:47.077Z,1013.1
2017-07-15T04:21:00.846Z,1013.2
2017-07-15T04:31:16.527Z,1013.4
2017-07-15T04:41:31.246Z,1013.5
2017-07-15T04:51:45.454Z,1013.5
2017-07-15T05:01:59.932Z,1013.6
2017-07-15T05:12:14.949Z,1013.6
2017-07-15T05:22:30.501Z,1013.8
2017-07-15T05:32:45.709Z,1013.7
2017-07-15T05:43:00.764Z,1013.9
2017-07-15T05:53:15.579Z,1013.9
2017-07-15T06:03:30.375Z,1014
2017-07-15T06:13:44.352Z,1014.1
2017-07-15T06:23:58.146Z,1014.2
2017-07-15T06:34:12.348Z,1014.5
2017-07-15T06:44:26.401Z,1014.5
2017-07-15T06:54:41.134Z,1014.6
2017-07-15T07:04:56.034Z,1014.7
2017-07-15T07:15:11.603Z,1014.8
2017-07-15T07:25:26.031Z,1014.9
2017-07-15T07:35:40.779Z,1015.2
2017-07-15T07:45:56.271Z,1015.3
2017-07-15T07:56:11.600Z,1015
2017-07-15T08:06:26.605Z,1015.4
2017-07-15T08:16:40.949Z,1015.5
2017-07-15T08:26:56.682Z,1015.2
2017-07-15T08:37:11.542Z,1015.4
2017-07-15T08:47:26.357Z,1015.6
2017-07-15T08:57:40.798Z,1015.8
2017-07-15T09:07:55.673Z,1015.7
2017-07-15T09:18:09.676Z,1015.6
2017-07-15T09:28:25.123Z,1016
2017-07-15T09:38:40.207Z,1015.6
2017-07-15T09:48:54.194Z,1016.1
2017-07-15T09:59:08.305Z,1016.3
2017-07-15T10:09:23.347Z,1015.6
2017-07-15T10:19:38.919Z,1016.1
2017-07-15T10:29:52.915Z,1015.9
2017-07-15T10:40:07.451Z,1016.1
2017-07-15T10:50:21.749Z,1016.2
2017-07-15T11:00:36.234Z,1015.8
2017-07-15T11:10:50.304Z,1015.6
2017-07-15T11:21:04.317Z,1015.9
2017-07-15T11:31:18.398Z,1016.5
2017-07-15T11:41:32.826Z,1016.3
2017-07-15T11:51:48.411Z,1016.8
2017-07-15T12:02:04.072Z,1016.8
2017-07-15T12:12:19.409Z,1016.1
2017-07-15T12:22:34.887Z,1016.5
2017-07-15T12:32:50.048Z,1016.5
2017-07-15T12:43:04.372Z,1016.3
2017-07-15T12:53:19.825Z,1016
2017-07-15T13:03:34.517Z,1016.1
2017-07-15T13:13:50.341Z,1016.8
2017-07-15T13:24:06.065Z,1016.3
2017-07-15T13:34:21.197Z,1016.5
2017-07-15T13:44:36.385Z,1016.3
2017-07-15T13:54:51.988Z,1016.4
2017-07-15T14:05:06.834Z,1016.3
2017-07-15T14:15:22.721Z,1016.1
2017-07-15T14:25:37.834Z,1016
2017-07-15T14:35:53.119Z,1016.1
2017-07-15T14:46:07.771Z,1016.2
2017-07-15T14:56:22.397Z,1016.2
2017-07-15T15:06:38.253Z,1016
2017-07-15T15:16:52.940Z,1016
2017-07-15T15:27:07.869Z,1015.8
2017-07-15T15:37:23.030Z,1015.7
2017-07-15T15:47:38.506Z,1015.6
2017-07-15T15:57:53.012Z,1015.6
2017-07-15T16:08:08.240Z,1015.5
2017-07-15T16:18:22.146Z,1015.6
2017-07-15T16:28:36.204Z,1015.5
2017-07-15T16:38:50.316Z,1015.3
2017-07-15T16:49:05.210Z,1015.3
2017-07-15T16:59:19.618Z,1015.6
2017-07-15T17:09:33.531Z,1015.4
2017-07-15T17:19:47.693Z,1015.4
2017-07-15T17:30:02.161Z,1015.5
2017-07-15T17:40:16.727Z,1015.5
2017-07-15T17:50:31.594Z,1015.6
2017-07-15T18:00:46.449Z,1015.6
2017-07-15T18:11:00.321Z,1015.6
2017-07-15T18:21:15.463Z,1015.6
2017-07-15T18:31:30.422Z,1015.6
2017-07-15T18:41:45.975Z,1015.6
2017-07-15T18:52:00.128Z,1015.7
2017-07-15T19:02:14.472Z,1015.6
2017-07-15T19:12:29.289Z,1015.6
2017-07-15T19:22:43.878Z,1015.7
2017-07-15T19:32:58.110Z,1015.6
2017-07-15T19:43:12.205Z,1015.7
2017-07-15T19:53:26.051Z,1015.8
2017-07-15T20:03:40.556Z,1015.9
2017-07-15T20:13:55.118Z,1015.9
2017-07-15T20:24:09.595Z,1015.9
2017-07-15T20:34:23.428Z,1016
2017-07-15T20:44:38.860Z,1015.9
2017-07-15T20:54:54.044Z,1015.8
2017-07-15T21:05:08.584Z,1015.8
2017-07-15T21:15:22.696Z,1015.7
2017-07-15T21:25:37.870Z,1015.7
2017-07-15T21:35:52.493Z,1015.8
2017-07-15T21:46:07.188Z,1015.7
2017-07-15T21:56:21.719Z,1015.7
2017-07-15T22:06:36.141Z,1015.7
2017-07-15T22:16:50.682Z,1015.7
2017-07-15T22:27:05.474Z,1015.8
2017-07-15T22:37:19.288Z,1015.7
2017-07-15T22:47:33.665Z,1015.7
2017-07-15T22:57:49.207Z,1015.6
2017-07-15T23:08:03.391Z,1015.5
2017-07-15T23:18:18.040Z,1015.4
2017-07-15T23:28:32.714Z,1015.4
2017-07-15T23:38:47.753Z,1015.5
2017-07-15T23:49:02.735Z,1015.4
2017-07-15T23:59:16.681Z,1015.5
